createdAt,value
2018-12-15T00:00:15.900Z,47.57
2018-12-15T00:03:19.241Z,46.93
2018-12-15T00:06:24.439Z,43.73
2018-12-15T00:09:28.598Z,37.73
2018-12-15T00:12:31.711Z,41.17
2018-12-15T00:15:34.843Z,37.77
2018-12-15T00:18:38.051Z,38.43
2018-12-15T00:21:41.247Z,38.37
2018-12-15T00:24:44.353Z,33.10
2018-12-15T00:27:47.543Z,35.50
2018-12-15T00:30:50.755Z,30.53
2018-12-15T00:33:53.932Z,31.60
2018-12-15T00:36:57.064Z,29.27
2018-12-15T00:40:00.217Z,28.83
2018-12-15T00:43:03.383Z,29.40
2018-12-15T00:46:06.537Z,26.03
2018-12-15T00:49:09.651Z,26.23
2018-12-15T00:52:12.839Z,24.87
2018-12-15T00:55:15.978Z,23.43
2018-12-15T00:58:19.131Z,25.57
2018-12-15T01:01:22.282Z,25.03
2018-12-15T01:04:25.448Z,20.77
2018-12-15T01:07:28.703Z,24.80
2018-12-15T01:10:31.791Z,22.17
2018-12-15T01:13:35.169Z,21.97
2018-12-15T01:16:38.371Z,19.33
2018-12-15T01:19:41.628Z,19.33
2018-12-15T01:22:44.823Z,19.73
2018-12-15T01:25:47.975Z,19.80
2018-12-15T01:28:51.098Z,18.07
2018-12-15T01:31:54.241Z,20.23
2018-12-15T01:42:32.845Z,14.23
2018-12-15T01:45:35.964Z,15.63
2018-12-15T01:48:39.128Z,13.73
2018-12-15T01:51:42.358Z,14.73
2018-12-15T01:54:45.536Z,13.73
2018-12-15T01:57:48.693Z,11.87
2018-12-15T02:00:51.918Z,13.87
2018-12-15T02:03:55.079Z,12.27
2018-12-15T02:06:58.200Z,11.73
2018-12-15T02:10:01.276Z,12.43
2018-12-15T02:13:04.438Z,11.43
2018-12-15T02:16:07.545Z,11.67
2018-12-15T02:19:10.798Z,11.07
2018-12-15T02:22:13.912Z,10.80
2018-12-15T02:25:17.048Z,9.77
2018-12-15T02:28:20.162Z,9.27
2018-12-15T02:31:24.535Z,12.63
2018-12-15T02:34:27.737Z,9.27
2018-12-15T02:37:35.216Z,9.43
2018-12-15T02:40:38.328Z,9.73
2018-12-15T02:43:41.515Z,10.03
2018-12-15T02:46:44.676Z,10.50
2018-12-15T02:49:47.891Z,8.73
2018-12-15T02:52:51.059Z,9.67
2018-12-15T02:55:54.298Z,9.20
2018-12-15T02:58:58.547Z,8.10
2018-12-15T03:02:01.670Z,8.17
2018-12-15T03:05:05.157Z,9.03
2018-12-15T03:08:08.241Z,9.67
2018-12-15T03:11:11.434Z,8.77
2018-12-15T03:14:14.655Z,7.43
2018-12-15T03:17:18.855Z,8.00
2018-12-15T03:20:22.042Z,6.50
2018-12-15T03:23:25.196Z,7.60
2018-12-15T03:26:28.320Z,8.93
2018-12-15T03:29:31.439Z,8.57
2018-12-15T03:32:34.584Z,7.00
2018-12-15T03:35:37.695Z,8.77
2018-12-15T03:38:40.797Z,7.53
2018-12-15T03:41:43.900Z,9.07
2018-12-15T03:44:47.058Z,7.73
2018-12-15T03:47:56.257Z,6.40
2018-12-15T03:50:55.376Z,6.70
2018-12-15T03:53:58.571Z,6.27
2018-12-15T03:57:01.677Z,7.20
2018-12-15T04:00:05.023Z,6.87
2018-12-15T04:03:09.231Z,6.27
2018-12-15T04:06:12.425Z,12.53
2018-12-15T04:09:15.563Z,6.47
2018-12-15T04:12:18.684Z,6.37
2018-12-15T04:15:21.896Z,6.07
2018-12-15T04:18:25.123Z,6.33
2018-12-15T04:21:28.258Z,5.77
2018-12-15T04:24:31.375Z,5.60
2018-12-15T04:27:34.529Z,5.83
2018-12-15T04:30:37.671Z,6.53
2018-12-15T04:33:40.855Z,5.43
2018-12-15T04:36:44.096Z,6.27
2018-12-15T04:39:47.217Z,6.60
2018-12-15T04:42:50.355Z,6.17
2018-12-15T04:45:53.498Z,5.30
2018-12-15T04:48:56.763Z,5.73
2018-12-15T04:51:59.871Z,6.43
2018-12-15T04:55:03.126Z,6.17
2018-12-15T04:58:06.447Z,4.43
2018-12-15T05:01:09.560Z,4.37
2018-12-15T05:04:12.675Z,5.77
2018-12-15T05:07:15.828Z,6.57
2018-12-15T05:10:19.039Z,7.23
2018-12-15T05:13:22.187Z,7.00
2018-12-15T05:16:25.415Z,5.40
2018-12-15T05:19:28.577Z,8.40
2018-12-15T05:22:31.808Z,5.63
2018-12-15T05:25:35.021Z,6.33
2018-12-15T05:28:38.168Z,5.37
2018-12-15T05:31:41.438Z,4.90
2018-12-15T05:34:44.619Z,6.03
2018-12-15T05:37:47.860Z,5.40
2018-12-15T05:40:51.026Z,4.97
2018-12-15T05:43:54.178Z,6.20
2018-12-15T05:46:57.517Z,6.37
2018-12-15T05:50:00.664Z,4.70
2018-12-15T05:53:03.943Z,5.63
2018-12-15T05:56:07.120Z,219.57
2018-12-15T05:59:12.474Z,116.57
2018-12-15T06:02:17.176Z,108.30
2018-12-15T06:05:21.675Z,116.37
2018-12-15T06:08:24.899Z,100.27
2018-12-15T06:11:28.089Z,89.63
2018-12-15T06:14:32.344Z,84.83
2018-12-15T06:17:36.571Z,80.03
2018-12-15T06:20:39.721Z,73.57
2018-12-15T06:23:42.859Z,66.37
2018-12-15T06:26:46.062Z,65.50
2018-12-15T06:29:49.216Z,64.77
2018-12-15T06:32:52.356Z,60.93
2018-12-15T06:35:55.571Z,57.77
2018-12-15T06:38:58.718Z,52.70
2018-12-15T06:42:01.840Z,50.80
2018-12-15T06:45:05.466Z,48.10
2018-12-15T06:48:08.582Z,47.77
2018-12-15T06:51:11.751Z,43.87
2018-12-15T06:54:15.131Z,41.70
2018-12-15T06:57:18.388Z,39.40
2018-12-15T07:00:21.621Z,39.00
2018-12-15T07:03:25.426Z,39.00
2018-12-15T07:06:28.499Z,35.03
2018-12-15T07:09:31.699Z,34.30
2018-12-15T07:12:34.895Z,31.57
2018-12-15T07:15:38.089Z,32.63
2018-12-15T07:18:44.729Z,29.77
2018-12-15T07:21:46.432Z,28.20
2018-12-15T07:24:49.545Z,26.63
2018-12-15T07:27:52.862Z,27.23
2018-12-15T07:30:56.006Z,28.93
2018-12-15T07:33:59.226Z,25.70
2018-12-15T07:37:04.464Z,27.60
2018-12-15T07:40:08.266Z,22.60
2018-12-15T07:43:11.405Z,22.67
2018-12-15T07:46:15.578Z,20.97
2018-12-15T07:49:18.708Z,21.63
2018-12-15T07:52:21.835Z,23.30
2018-12-15T07:55:25.192Z,21.37
2018-12-15T07:58:28.453Z,19.30
2018-12-15T08:01:31.724Z,18.20
2018-12-15T08:04:34.897Z,18.07
2018-12-15T08:07:39.154Z,17.47
2018-12-15T08:10:47.688Z,17.87
2018-12-15T08:13:56.897Z,16.67
2018-12-15T08:17:00.319Z,17.40
2018-12-15T08:20:04.215Z,16.77
2018-12-15T08:23:07.354Z,16.63
2018-12-15T08:26:10.574Z,15.00
2018-12-15T08:29:13.726Z,16.73
2018-12-15T08:32:16.939Z,13.87
2018-12-15T08:35:20.253Z,13.90
2018-12-15T08:38:23.403Z,13.30
2018-12-15T08:41:26.742Z,12.77
2018-12-15T08:44:29.875Z,12.80
2018-12-15T08:47:33.292Z,11.20
2018-12-15T08:50:36.648Z,27.83
2018-12-15T08:53:39.959Z,90.53
2018-12-15T08:56:43.288Z,79.13
2018-12-15T08:59:46.628Z,62.07
2018-12-15T09:02:50.908Z,46.47
2018-12-15T09:05:56.234Z,35.70
2018-12-15T09:08:59.411Z,30.20
2018-12-15T09:12:02.598Z,24.73
2018-12-15T09:15:06.330Z,22.37
2018-12-15T09:18:09.851Z,20.37
2018-12-15T09:21:13.191Z,18.07
2018-12-15T09:31:55.301Z,29.93
2018-12-15T09:34:58.506Z,25.27
2018-12-15T09:38:05.078Z,21.07
2018-12-15T09:41:08.416Z,20.60
2018-12-15T09:44:11.728Z,20.53
2018-12-15T09:47:16.106Z,17.97
2018-12-15T09:50:19.414Z,18.20
2018-12-15T09:53:22.793Z,18.00
2018-12-15T09:56:27.023Z,16.93
2018-12-15T09:59:31.281Z,36.30
2018-12-15T10:02:35.016Z,35.27
2018-12-15T10:05:38.560Z,23.70
2018-12-15T10:08:41.851Z,25.53
2018-12-15T10:11:45.142Z,17.80
2018-12-15T10:14:48.478Z,19.63
2018-12-15T10:17:52.821Z,18.90
2018-12-15T10:20:58.166Z,16.70
2018-12-15T10:24:01.359Z,14.80
2018-12-15T10:27:04.755Z,90.53
2018-12-15T10:30:13.483Z,14.07
2018-12-15T10:33:16.788Z,11.00
2018-12-15T10:36:20.115Z,12.77
2018-12-15T10:39:23.600Z,11.57
2018-12-15T10:42:26.775Z,11.17
2018-12-15T10:45:29.950Z,12.13
2018-12-15T10:48:33.179Z,12.83
2018-12-15T10:51:37.751Z,11.77
2018-12-15T10:54:40.961Z,13.63
2018-12-15T10:57:44.258Z,10.47
2018-12-15T11:00:53.001Z,12.03
2018-12-15T11:04:00.762Z,12.97
2018-12-15T11:07:01.658Z,8.83
2018-12-15T11:10:05.118Z,10.47
2018-12-15T11:13:08.547Z,12.70
2018-12-15T11:16:11.714Z,8.13
2018-12-15T11:19:15.571Z,10.03
2018-12-15T11:22:20.423Z,9.13
2018-12-15T11:25:23.675Z,10.57
2018-12-15T11:28:27.013Z,8.30
2018-12-15T11:31:31.216Z,12.13
2018-12-15T11:34:34.411Z,8.60
2018-12-15T11:37:37.692Z,8.37
2018-12-15T11:40:41.137Z,11.03
2018-12-15T11:43:44.318Z,12.77
2018-12-15T11:46:48.654Z,10.20
2018-12-15T11:49:52.187Z,9.63
2018-12-15T11:52:57.091Z,8.90
2018-12-15T11:56:00.378Z,8.70
2018-12-15T11:59:03.982Z,10.63
2018-12-15T12:02:07.385Z,9.80
2018-12-15T12:05:10.734Z,7.70
2018-12-15T12:08:13.945Z,9.37
2018-12-15T12:11:17.125Z,8.10
2018-12-15T12:14:20.464Z,7.67
2018-12-15T12:17:23.712Z,8.30
2018-12-15T12:20:27.072Z,11.70
2018-12-15T12:23:30.284Z,8.90
2018-12-15T12:26:33.528Z,16.23
2018-12-15T12:29:36.652Z,12.20
2018-12-15T12:32:39.894Z,9.73
2018-12-15T12:35:44.233Z,12.43
2018-12-15T12:38:47.536Z,9.23
2018-12-15T12:41:51.928Z,12.33
2018-12-15T12:44:55.101Z,11.40
2018-12-15T12:47:58.271Z,9.97
2018-12-15T12:51:01.477Z,10.13
2018-12-15T12:54:04.716Z,9.40
2018-12-15T12:57:07.948Z,10.40
2018-12-15T13:00:11.455Z,7.30
2018-12-15T13:03:14.797Z,8.00
2018-12-15T13:06:18.129Z,7.60
2018-12-15T13:09:21.562Z,8.53
2018-12-15T13:12:24.736Z,8.73
2018-12-15T13:15:27.859Z,7.83
2018-12-15T13:18:31.120Z,7.73
2018-12-15T13:21:34.438Z,7.20
2018-12-15T13:24:37.630Z,10.70
2018-12-15T13:27:40.840Z,12.73
2018-12-15T13:30:44.686Z,7.57
2018-12-15T13:33:47.851Z,6.13
2018-12-15T13:36:51.088Z,7.23
2018-12-15T13:39:54.941Z,6.83
2018-12-15T13:42:58.383Z,7.47
2018-12-15T13:46:01.894Z,6.57
2018-12-15T13:49:06.668Z,7.80
2018-12-15T13:52:09.823Z,5.33
2018-12-15T13:55:13.280Z,6.13
2018-12-15T13:58:16.623Z,6.37
2018-12-15T14:01:19.932Z,8.27
2018-12-15T14:04:23.426Z,6.03
2018-12-15T14:07:26.662Z,7.20
2018-12-15T14:10:31.926Z,5.70
2018-12-15T14:13:35.359Z,6.43
2018-12-15T14:16:38.937Z,6.70
2018-12-15T14:19:42.167Z,5.03
2018-12-15T14:22:45.735Z,6.23
2018-12-15T14:25:48.974Z,7.17
2018-12-15T14:28:52.218Z,27.27
2018-12-15T14:31:55.619Z,44.47
2018-12-15T14:34:58.952Z,28.57
2018-12-15T14:38:02.207Z,23.53
2018-12-15T14:41:05.469Z,16.73
2018-12-15T14:44:08.622Z,13.03
2018-12-15T14:47:30.549Z,18.07
2018-12-15T14:50:33.795Z,14.13
2018-12-15T14:53:37.112Z,12.37
2018-12-15T14:56:40.399Z,11.07
2018-12-15T14:59:43.516Z,12.27
2018-12-15T15:02:46.712Z,10.13
2018-12-15T15:05:49.869Z,11.23
2018-12-15T15:08:53.160Z,9.40
2018-12-15T15:11:56.655Z,10.77
2018-12-15T15:15:00.563Z,11.10
2018-12-15T15:18:03.738Z,10.57
2018-12-15T15:21:06.941Z,11.23
2018-12-15T15:24:10.199Z,10.67
2018-12-15T15:27:13.663Z,11.80
2018-12-15T15:30:16.851Z,10.70
2018-12-15T15:33:20.073Z,11.50
2018-12-15T15:36:23.402Z,11.90
2018-12-15T15:39:26.693Z,13.57
2018-12-15T15:42:29.834Z,10.33
2018-12-15T15:45:33.084Z,10.90
2018-12-15T15:48:36.372Z,10.87
2018-12-15T15:51:39.648Z,12.13
2018-12-15T15:54:42.822Z,10.40
2018-12-15T15:57:46.968Z,11.37
2018-12-15T16:00:51.221Z,11.63
2018-12-15T16:03:54.377Z,10.40
2018-12-15T16:06:58.629Z,12.60
2018-12-15T16:10:01.920Z,13.27
2018-12-15T16:13:05.312Z,12.47
2018-12-15T16:16:39.507Z,13.53
2018-12-15T16:19:42.783Z,12.57
2018-12-15T16:22:46.067Z,12.43
2018-12-15T16:25:49.448Z,13.10
2018-12-15T16:28:52.658Z,13.17
2018-12-15T16:31:55.818Z,12.00
2018-12-15T16:34:58.974Z,11.77
2018-12-15T16:38:02.161Z,12.67
2018-12-15T16:41:05.435Z,11.40
2018-12-15T16:44:08.696Z,12.87
2018-12-15T16:47:11.977Z,14.17
2018-12-15T16:50:15.254Z,12.97
2018-12-15T16:53:18.495Z,13.03
2018-12-15T16:56:21.699Z,12.87
2018-12-15T16:59:24.941Z,13.70
2018-12-15T17:02:28.102Z,13.63
2018-12-15T17:05:31.465Z,12.73
2018-12-15T17:08:34.741Z,50.43
2018-12-15T17:11:37.954Z,70.03
2018-12-15T17:14:41.220Z,63.73
2018-12-15T17:17:44.398Z,61.10
2018-12-15T17:20:48.259Z,59.37
2018-12-15T17:23:51.442Z,49.10
2018-12-15T17:26:54.673Z,49.80
2018-12-15T17:29:57.887Z,47.10
2018-12-15T17:33:02.102Z,49.97
2018-12-15T17:36:05.384Z,45.37
2018-12-15T17:39:08.709Z,41.90
2018-12-15T17:42:11.832Z,38.57
2018-12-15T17:45:15.041Z,38.30
2018-12-15T17:48:18.280Z,30.50
2018-12-15T17:51:22.751Z,31.60
2018-12-15T17:54:27.384Z,32.37
2018-12-15T17:57:32.090Z,32.73
2018-12-15T18:00:35.826Z,28.83
2018-12-15T18:03:39.412Z,30.67
2018-12-15T18:06:42.615Z,28.63
2018-12-15T18:09:45.770Z,25.00
2018-12-15T18:12:48.991Z,24.83
2018-12-15T18:15:52.141Z,22.20
2018-12-15T18:18:55.803Z,21.20
2018-12-15T18:21:59.038Z,19.40
2018-12-15T18:25:02.229Z,22.10
2018-12-15T18:28:05.342Z,21.97
2018-12-15T18:31:08.609Z,19.33
2018-12-15T18:34:11.747Z,17.40
2018-12-15T18:37:14.975Z,17.57
2018-12-15T18:40:18.181Z,16.30
2018-12-15T18:43:22.271Z,17.30
2018-12-15T18:46:25.414Z,17.00
2018-12-15T18:49:28.627Z,15.07
2018-12-15T18:52:31.860Z,15.87
2018-12-15T18:55:35.207Z,14.10
2018-12-15T18:58:38.506Z,12.37
2018-12-15T19:01:41.806Z,16.50
2018-12-15T19:04:44.935Z,13.47
2018-12-15T19:07:49.153Z,15.00
2018-12-15T19:10:52.309Z,11.73
2018-12-15T19:13:55.500Z,10.93
2018-12-15T19:16:59.776Z,11.20
2018-12-15T19:20:03.088Z,9.87
2018-12-15T19:23:06.328Z,10.27
2018-12-15T19:26:09.593Z,9.43
2018-12-15T19:29:12.766Z,10.17
2018-12-15T19:32:16.873Z,9.60
2018-12-15T19:35:21.309Z,9.27
2018-12-15T19:38:29.943Z,8.83
2018-12-15T19:41:33.147Z,9.17
2018-12-15T19:44:36.334Z,9.07
2018-12-15T19:47:39.653Z,7.97
2018-12-15T19:50:42.900Z,7.60
2018-12-15T19:53:47.612Z,8.63
2018-12-15T19:56:51.072Z,8.10
2018-12-15T19:59:54.542Z,8.40
2018-12-15T20:02:57.931Z,7.73
2018-12-15T20:06:01.298Z,7.90
2018-12-15T20:09:07.810Z,7.27
2018-12-15T20:12:11.037Z,7.80
2018-12-15T20:15:14.177Z,6.93
2018-12-15T20:18:17.402Z,6.30
2018-12-15T20:21:21.617Z,5.70
2018-12-15T20:24:24.811Z,5.67
2018-12-15T20:27:28.200Z,6.07
2018-12-15T20:30:31.709Z,6.10
2018-12-15T20:33:35.550Z,5.83
2018-12-15T20:36:38.896Z,5.40
2018-12-15T20:39:42.314Z,6.57
2018-12-15T20:42:45.532Z,5.77
2018-12-15T20:45:48.802Z,6.30
2018-12-15T20:48:52.108Z,6.03
2018-12-15T20:51:55.621Z,5.37
2018-12-15T20:54:59.002Z,5.43
2018-12-15T20:58:02.170Z,5.13
2018-12-15T21:01:05.666Z,5.70
2018-12-15T21:04:08.904Z,5.77
2018-12-15T21:07:12.816Z,5.50
2018-12-15T21:10:16.043Z,3.90
2018-12-15T21:13:19.604Z,5.30
2018-12-15T21:16:22.986Z,4.13
2018-12-15T21:19:26.258Z,4.17
2018-12-15T21:22:29.738Z,4.30
2018-12-15T21:25:32.883Z,4.67
2018-12-15T21:28:36.017Z,3.97
2018-12-15T21:31:39.167Z,4.93
2018-12-15T21:34:42.314Z,4.10
2018-12-15T21:37:45.494Z,4.73
2018-12-15T21:40:48.759Z,4.00
2018-12-15T21:43:51.947Z,4.20
2018-12-15T21:46:55.155Z,5.10
2018-12-15T21:49:58.379Z,4.23
2018-12-15T21:53:01.606Z,5.07
2018-12-15T21:56:04.831Z,4.17
2018-12-15T21:59:08.095Z,4.87
2018-12-15T22:02:11.276Z,4.57
2018-12-15T22:05:14.470Z,4.13
2018-12-15T22:08:17.893Z,4.63
2018-12-15T22:11:21.070Z,4.57
2018-12-15T22:14:24.253Z,5.20
2018-12-15T22:17:27.394Z,4.60
2018-12-15T22:20:30.701Z,4.23
2018-12-15T22:23:33.821Z,3.77
2018-12-15T22:26:36.944Z,4.07
2018-12-15T22:29:40.074Z,4.30
2018-12-15T22:32:43.372Z,4.07
2018-12-15T22:35:46.596Z,4.23
2018-12-15T22:38:49.965Z,3.50
2018-12-15T22:41:53.180Z,5.50
2018-12-15T22:44:56.471Z,3.97
2018-12-15T22:48:03.481Z,4.60
2018-12-15T22:51:07.956Z,5.10
2018-12-15T22:54:11.135Z,4.87
2018-12-15T22:57:14.570Z,4.73
2018-12-15T23:00:18.696Z,5.03
2018-12-15T23:03:21.884Z,4.63
2018-12-15T23:06:25.042Z,7.27
2018-12-15T23:09:28.970Z,10.47
2018-12-15T23:12:33.245Z,4.77
2018-12-15T23:15:36.637Z,4.40
2018-12-15T23:18:40.160Z,5.80
2018-12-15T23:21:43.943Z,6.53
2018-12-15T23:24:47.257Z,4.17
2018-12-15T23:27:51.583Z,85.10
2018-12-15T23:30:54.765Z,176.90
2018-12-15T23:33:59.323Z,204.97
2018-12-15T23:37:02.736Z,149.87
2018-12-15T23:40:06.113Z,120.97
2018-12-15T23:43:09.316Z,99.00
2018-12-15T23:46:12.620Z,107.07
2018-12-15T23:49:15.901Z,88.50
2018-12-15T23:52:23.347Z,44.80
2018-12-15T23:55:24.191Z,60.57
2018-12-15T23:58:27.337Z,82.53
